createdAt,value
2022-12-19T00:01:36.614Z,65.10
2022-12-19T00:04:08.144Z,58.15
2022-12-19T00:06:37.945Z,65.03
2022-12-19T00:09:10.986Z,58.78
2022-12-19T00:11:38.969Z,64.15
2022-12-19T00:14:06.668Z,63.97
2022-12-19T00:16:33.963Z,59.05
2022-12-19T00:19:01.873Z,58.50
2022-12-19T00:21:31.207Z,54.72
2022-12-19T00:24:03.091Z,57.63
2022-12-19T00:26:31.912Z,61.53
2022-12-19T00:29:00.817Z,57.40
2022-12-19T00:33:56.551Z,52.72
2022-12-19T00:36:25.354Z,52.50
2022-12-19T00:38:53.904Z,53.80
2022-12-19T00:41:26.661Z,53.95
2022-12-19T00:44:01.851Z,49.60
2022-12-19T00:46:30.840Z,56.28
2022-12-19T00:48:58.047Z,58.75
2022-12-19T00:51:33.603Z,49.58
2022-12-19T00:54:00.941Z,51.90
2022-12-19T00:56:37.916Z,54.50
2022-12-19T00:59:05.974Z,55.58
2022-12-19T01:01:36.281Z,47.78
2022-12-19T01:06:52.813Z,50.33
2022-12-19T01:09:21.739Z,61.95
2022-12-19T01:12:07.802Z,51.17
2022-12-19T01:14:35.583Z,54.35
2022-12-19T01:17:02.817Z,52.63
2022-12-19T01:19:31.391Z,49.00
2022-12-19T01:21:58.794Z,53.15
2022-12-19T01:24:26.256Z,51.15
2022-12-19T01:26:53.521Z,52.60
2022-12-19T01:29:20.938Z,48.30
2022-12-19T01:31:48.216Z,45.28
2022-12-19T01:34:15.478Z,44.25
2022-12-19T01:36:42.693Z,47.05
2022-12-19T01:39:09.994Z,48.95
2022-12-19T01:41:38.156Z,50.40
2022-12-19T01:44:07.307Z,48.05
2022-12-19T01:49:16.249Z,45.45
2022-12-19T01:51:47.071Z,44.15
2022-12-19T01:54:27.135Z,50.30
2022-12-19T01:56:56.206Z,46.63
2022-12-19T01:59:27.519Z,43.45
2022-12-19T02:01:58.649Z,44.45
2022-12-19T02:04:32.009Z,42.72
2022-12-19T02:07:08.117Z,48.33
2022-12-19T02:09:45.675Z,50.42
2022-12-19T02:12:12.941Z,52.72
2022-12-19T02:14:40.688Z,46.30
2022-12-19T02:17:21.922Z,48.30
2022-12-19T02:20:08.194Z,45.38
2022-12-19T02:23:06.245Z,43.67
2022-12-19T02:25:51.908Z,44.78
2022-12-19T02:28:51.706Z,46.47
2022-12-19T02:31:25.232Z,51.08
2022-12-19T02:34:10.539Z,45.92
2022-12-19T02:36:42.044Z,44.97
2022-12-19T02:39:35.259Z,42.15
2022-12-19T02:42:03.492Z,42.92
2022-12-19T02:44:40.762Z,46.40
2022-12-19T02:47:09.093Z,46.28
2022-12-19T02:49:37.758Z,44.15
2022-12-19T02:52:19.969Z,42.63
2022-12-19T02:54:52.258Z,43.78
2022-12-19T02:57:28.221Z,46.60
2022-12-19T03:00:18.190Z,44.50
2022-12-19T03:03:00.739Z,41.30
2022-12-19T03:06:06.334Z,42.03
2022-12-19T03:08:57.439Z,44.25
2022-12-19T03:11:25.248Z,50.80
2022-12-19T03:13:56.702Z,46.05
2022-12-19T03:16:24.499Z,46.25
2022-12-19T03:18:55.754Z,41.28
2022-12-19T03:21:39.495Z,45.10
2022-12-19T03:24:08.430Z,40.58
2022-12-19T03:26:43.764Z,47.97
2022-12-19T03:29:30.678Z,43.03
2022-12-19T03:31:59.849Z,47.65
2022-12-19T03:34:47.436Z,46.70
2022-12-19T03:37:17.415Z,48.28
2022-12-19T03:39:48.303Z,44.45
2022-12-19T03:42:35.822Z,45.05
2022-12-19T03:45:05.383Z,42.80
2022-12-19T03:47:39.080Z,43.50
2022-12-19T03:50:06.846Z,36.20
2022-12-19T03:52:52.895Z,46.22
2022-12-19T03:55:32.305Z,44.97
2022-12-19T03:58:19.344Z,46.65
2022-12-19T04:00:48.041Z,47.53
2022-12-19T04:03:17.541Z,44.13
2022-12-19T04:05:47.067Z,42.83
2022-12-19T04:08:14.411Z,45.92
2022-12-19T04:10:54.193Z,47.15
2022-12-19T04:13:30.129Z,45.22
2022-12-19T04:16:18.812Z,47.03
2022-12-19T04:18:51.378Z,43.88
2022-12-19T04:21:25.339Z,49.65
2022-12-19T04:23:57.693Z,47.22
2022-12-19T04:26:25.345Z,44.78
2022-12-19T04:28:56.146Z,46.08
2022-12-19T04:31:23.939Z,48.30
2022-12-19T04:33:51.369Z,45.50
2022-12-19T04:36:18.616Z,48.25
2022-12-19T04:38:45.824Z,46.08
2022-12-19T04:41:13.169Z,47.42
2022-12-19T04:43:40.386Z,45.17
2022-12-19T04:46:07.664Z,51.25
2022-12-19T04:48:36.559Z,43.63
2022-12-19T04:51:04.234Z,44.38
2022-12-19T04:53:32.389Z,45.13
2022-12-19T04:56:06.906Z,53.33
2022-12-19T04:58:34.729Z,46.55
2022-12-19T05:01:03.287Z,50.58
2022-12-19T05:03:30.574Z,45.28
2022-12-19T05:06:08.905Z,47.97
2022-12-19T05:08:37.223Z,44.53
2022-12-19T05:11:05.785Z,49.80
2022-12-19T05:13:33.148Z,52.70
2022-12-19T05:16:05.853Z,48.30
2022-12-19T05:18:33.637Z,48.60
2022-12-19T05:21:00.991Z,49.35
2022-12-19T05:23:28.537Z,41.55
2022-12-19T05:25:58.402Z,47.40
2022-12-19T05:28:25.653Z,46.83
2022-12-19T05:30:52.876Z,48.20
2022-12-19T05:33:20.211Z,51.45
2022-12-19T05:35:49.409Z,44.38
2022-12-19T05:38:16.658Z,47.42
2022-12-19T05:40:43.913Z,49.03
2022-12-19T05:43:11.139Z,53.05
2022-12-19T05:45:40.034Z,53.08
2022-12-19T05:48:07.272Z,50.63
2022-12-19T05:50:36.747Z,54.45
2022-12-19T05:53:03.940Z,51.53
2022-12-19T05:55:31.155Z,49.40
2022-12-19T05:57:58.368Z,51.65
2022-12-19T06:00:25.706Z,46.47
2022-12-19T06:02:53.339Z,54.30
2022-12-19T06:05:20.707Z,50.95
2022-12-19T06:07:48.003Z,53.03
2022-12-19T06:10:15.249Z,49.67
2022-12-19T06:12:42.467Z,49.97
2022-12-19T06:15:10.461Z,49.33
2022-12-19T06:17:40.311Z,53.50
2022-12-19T06:20:08.094Z,54.75
2022-12-19T06:22:35.281Z,49.00
2022-12-19T06:25:02.857Z,49.88
2022-12-19T06:27:30.706Z,54.53
2022-12-19T06:29:57.889Z,46.70
2022-12-19T06:32:25.168Z,48.47
2022-12-19T06:35:07.662Z,49.35
2022-12-19T06:37:38.928Z,53.70
2022-12-19T06:40:07.311Z,50.15
2022-12-19T06:42:34.523Z,50.50
2022-12-19T06:45:01.898Z,50.45
2022-12-19T06:47:29.124Z,47.35
2022-12-19T06:49:56.364Z,53.92
2022-12-19T06:52:23.625Z,50.35
2022-12-19T06:54:52.896Z,49.20
2022-12-19T06:59:47.453Z,46.58
2022-12-19T07:02:24.614Z,54.22
2022-12-19T07:04:58.059Z,51.33
2022-12-19T07:07:25.265Z,51.03
2022-12-19T07:09:53.710Z,50.53
2022-12-19T07:12:20.936Z,52.80
2022-12-19T07:14:53.152Z,53.55
2022-12-19T07:17:21.744Z,55.17
2022-12-19T07:19:51.829Z,53.70
2022-12-19T07:22:19.218Z,49.58
2022-12-19T07:24:46.601Z,61.78
2022-12-19T07:27:15.060Z,64.07
2022-12-19T07:29:42.442Z,50.07
2022-12-19T07:32:09.729Z,52.30
2022-12-19T07:34:36.964Z,51.13
2022-12-19T07:37:04.178Z,44.22
2022-12-19T07:39:31.440Z,52.90
2022-12-19T07:41:58.840Z,50.40
2022-12-19T07:44:26.017Z,43.25
2022-12-19T07:46:53.170Z,45.42
2022-12-19T07:49:22.791Z,42.33
2022-12-19T07:51:50.217Z,41.78
2022-12-19T07:54:17.456Z,42.35
2022-12-19T07:56:44.717Z,40.95
2022-12-19T07:59:13.167Z,40.00
2022-12-19T08:01:40.828Z,41.55
2022-12-19T08:04:08.393Z,39.30
2022-12-19T08:06:41.002Z,40.33
2022-12-19T08:09:08.843Z,43.55
2022-12-19T08:11:36.051Z,35.53
2022-12-19T08:14:03.241Z,44.72
2022-12-19T08:16:30.811Z,44.75
2022-12-19T08:18:58.253Z,38.85
2022-12-19T08:21:25.748Z,34.55
2022-12-19T08:23:53.202Z,47.50
2022-12-19T08:26:25.365Z,36.90
2022-12-19T08:28:57.093Z,43.35
2022-12-19T08:31:26.544Z,36.95
2022-12-19T08:33:55.399Z,40.75
2022-12-19T08:36:23.080Z,41.22
2022-12-19T08:38:50.896Z,37.30
2022-12-19T08:41:18.771Z,40.25
2022-12-19T08:43:53.557Z,38.53
2022-12-19T08:46:21.652Z,33.65
2022-12-19T08:48:49.222Z,39.17
2022-12-19T08:51:17.336Z,34.63
2022-12-19T08:53:46.255Z,34.45
2022-12-19T08:56:14.828Z,40.33
2022-12-19T08:58:42.367Z,40.30
2022-12-19T09:01:13.913Z,37.17
2022-12-19T09:04:00.580Z,40.55
2022-12-19T09:06:29.838Z,33.63
2022-12-19T09:09:00.205Z,40.92
2022-12-19T09:11:28.355Z,34.40
2022-12-19T09:13:57.093Z,34.63
2022-12-19T09:16:25.988Z,39.03
2022-12-19T09:18:54.862Z,52.17
2022-12-19T09:21:23.650Z,32.63
2022-12-19T09:23:52.977Z,43.70
2022-12-19T09:28:49.885Z,33.45
2022-12-19T09:31:20.035Z,40.55
2022-12-19T09:33:47.745Z,35.63
2022-12-19T09:36:16.923Z,33.28
2022-12-19T09:38:44.312Z,33.15
2022-12-19T09:41:20.725Z,34.22
2022-12-19T09:44:09.409Z,32.30
2022-12-19T09:46:52.738Z,34.97
2022-12-19T09:49:26.253Z,40.72
2022-12-19T09:52:33.363Z,36.40
2022-12-19T09:55:17.419Z,30.25
2022-12-19T09:58:06.231Z,32.45
2022-12-19T10:00:45.679Z,39.25
2022-12-19T10:03:20.053Z,37.58
2022-12-19T10:06:29.485Z,36.90
2022-12-19T10:09:03.095Z,35.60
2022-12-19T10:12:43.863Z,34.47
2022-12-19T10:14:48.114Z,32.28
2022-12-19T10:17:51.486Z,36.42
2022-12-19T10:20:34.211Z,34.35
2022-12-19T10:23:42.665Z,40.85
2022-12-19T10:26:21.448Z,36.93
2022-12-19T10:29:17.088Z,35.55
2022-12-19T10:31:58.651Z,34.92
2022-12-19T10:34:40.755Z,34.03
2022-12-19T10:37:36.803Z,35.55
2022-12-19T10:40:13.220Z,37.90
2022-12-19T10:43:32.123Z,31.13
2022-12-19T10:46:02.915Z,36.92
2022-12-19T10:48:31.534Z,35.13
2022-12-19T10:51:05.203Z,36.63
2022-12-19T10:53:34.271Z,37.60
2022-12-19T10:56:11.485Z,34.10
2022-12-19T10:58:43.329Z,35.67
2022-12-19T11:01:17.653Z,36.33
2022-12-19T11:03:51.268Z,33.83
2022-12-19T11:06:46.363Z,35.75
2022-12-19T11:09:40.299Z,36.90
2022-12-19T11:16:42.854Z,36.97
2022-12-19T11:22:13.168Z,39.47
2022-12-19T11:24:29.998Z,38.60
2022-12-19T11:29:25.475Z,44.58
2022-12-19T11:30:05.879Z,41.30
2022-12-19T11:30:48.370Z,43.88
2022-12-19T11:32:45.783Z,40.15
2022-12-19T11:35:24.914Z,36.08
2022-12-19T11:37:58.918Z,42.78
2022-12-19T11:40:33.499Z,39.90
2022-12-19T11:43:42.499Z,43.75
2022-12-19T11:46:22.056Z,42.72
2022-12-19T11:48:57.197Z,44.53
2022-12-19T11:51:45.215Z,48.33
2022-12-19T11:54:23.280Z,41.72
2022-12-19T11:56:51.237Z,39.22
2022-12-19T11:59:40.166Z,42.70
2022-12-19T12:02:38.255Z,45.17
2022-12-19T12:05:58.409Z,43.20
2022-12-19T12:10:51.098Z,43.78
2022-12-19T12:25:48.658Z,49.80
2022-12-19T12:26:41.310Z,48.85
2022-12-19T12:31:21.672Z,52.90
2022-12-19T12:31:23.673Z,49.53
2022-12-19T12:31:49.077Z,53.00
2022-12-19T12:32:04.006Z,49.22
2022-12-19T12:35:38.193Z,50.63
2022-12-19T12:38:44.483Z,55.42
2022-12-19T12:41:14.781Z,49.03
2022-12-19T12:43:49.144Z,49.38
2022-12-19T12:46:22.046Z,54.67
2022-12-19T12:49:04.672Z,51.47
2022-12-19T12:51:33.297Z,50.60
2022-12-19T12:54:10.153Z,62.15
2022-12-19T12:56:37.525Z,55.35
2022-12-19T12:59:19.942Z,58.90
2022-12-19T13:01:54.839Z,55.35
2022-12-19T13:04:28.564Z,62.50
2022-12-19T13:07:16.363Z,58.25
2022-12-19T13:09:44.026Z,59.33
2022-12-19T13:12:45.115Z,56.90
2022-12-19T13:15:27.683Z,51.45
2022-12-19T13:17:54.965Z,63.30
2022-12-19T13:20:26.558Z,56.55
2022-12-19T13:23:01.040Z,57.72
2022-12-19T13:25:33.871Z,64.88
2022-12-19T13:28:04.196Z,58.97
2022-12-19T13:30:50.093Z,54.97
2022-12-19T13:33:22.611Z,55.65
2022-12-19T13:37:55.661Z,64.45
2022-12-19T13:39:58.315Z,69.35
2022-12-19T13:42:17.571Z,70.53
2022-12-19T13:44:44.833Z,62.83
2022-12-19T13:47:15.653Z,64.38
2022-12-19T13:49:54.676Z,66.75
2022-12-19T13:52:22.908Z,68.55
2022-12-19T13:54:52.256Z,65.78
2022-12-19T14:00:00.089Z,71.50
2022-12-19T14:02:45.073Z,60.95
2022-12-19T14:05:36.030Z,62.53
2022-12-19T14:08:19.037Z,69.25
2022-12-19T14:11:41.528Z,73.18
2022-12-19T14:14:17.487Z,72.72
2022-12-19T14:16:47.968Z,79.15
2022-12-19T14:19:25.993Z,74.93
2022-12-19T14:22:03.939Z,73.88
2022-12-19T14:24:40.223Z,67.95
2022-12-19T14:28:18.107Z,64.28
2022-12-19T14:30:30.271Z,67.10
2022-12-19T14:33:44.185Z,69.68
2022-12-19T14:36:12.554Z,72.15
2022-12-19T14:39:22.661Z,73.07
2022-12-19T14:41:48.505Z,74.88
2022-12-19T14:52:35.957Z,82.05
2022-12-19T14:53:36.595Z,79.15
2022-12-19T14:54:23.815Z,79.70
2022-12-19T14:54:52.804Z,71.55
2022-12-19T14:59:31.649Z,73.60
2022-12-19T15:02:07.373Z,78.25
2022-12-19T15:04:50.653Z,82.55
2022-12-19T15:07:26.432Z,78.55
2022-12-19T15:11:04.726Z,81.15
2022-12-19T15:14:48.709Z,88.35
2022-12-19T15:16:07.416Z,80.18
2022-12-19T15:18:39.588Z,79.13
2022-12-19T15:21:13.060Z,81.32
2022-12-19T15:23:40.714Z,79.30
2022-12-19T15:26:14.295Z,82.00
2022-12-19T15:28:43.198Z,80.63
2022-12-19T15:31:34.866Z,87.68
2022-12-19T15:34:36.744Z,83.93
2022-12-19T15:37:05.592Z,88.97
2022-12-19T15:39:33.095Z,89.82
2022-12-19T15:42:01.035Z,86.32
2022-12-19T15:44:38.909Z,99.00
2022-12-19T15:47:13.958Z,81.35
2022-12-19T15:49:41.451Z,86.43
2022-12-19T15:52:17.865Z,93.15
2022-12-19T15:54:50.178Z,83.05
2022-12-19T15:57:37.782Z,79.55
2022-12-19T16:00:19.614Z,93.60
2022-12-19T16:03:22.665Z,91.22
2022-12-19T16:05:37.506Z,96.18
2022-12-19T16:08:18.097Z,87.20
2022-12-19T16:10:48.121Z,87.75
2022-12-19T16:13:21.198Z,94.05
2022-12-19T16:15:52.515Z,93.55
2022-12-19T16:18:19.941Z,79.13
2022-12-19T16:20:48.250Z,83.35
2022-12-19T16:23:16.234Z,92.22
2022-12-19T16:25:47.925Z,83.45
2022-12-19T16:28:31.013Z,88.95
2022-12-19T16:30:59.518Z,91.00
2022-12-19T16:33:29.019Z,88.70
2022-12-19T16:36:06.004Z,87.50
2022-12-19T16:38:34.573Z,86.30
2022-12-19T16:41:02.054Z,89.63
2022-12-19T16:43:36.117Z,92.45
2022-12-19T16:46:06.002Z,85.28
2022-12-19T16:48:36.001Z,91.35
2022-12-19T16:51:03.643Z,85.40
2022-12-19T16:53:31.149Z,81.00
2022-12-19T16:56:00.825Z,92.53
2022-12-19T16:58:29.488Z,93.10
2022-12-19T17:00:57.057Z,83.00
2022-12-19T17:03:44.144Z,85.05
2022-12-19T17:06:16.885Z,90.00
2022-12-19T17:08:45.226Z,86.45
2022-12-19T17:11:21.431Z,84.20
2022-12-19T17:13:50.873Z,91.70
2022-12-19T17:18:46.043Z,81.93
2022-12-19T17:21:22.169Z,83.13
2022-12-19T17:23:50.304Z,91.85
2022-12-19T17:26:18.377Z,89.03
2022-12-19T17:28:48.758Z,82.55
2022-12-19T17:31:28.477Z,92.32
2022-12-19T17:33:57.714Z,83.97
2022-12-19T17:36:32.737Z,89.43
2022-12-19T17:39:02.301Z,88.65
2022-12-19T17:41:30.493Z,84.82
2022-12-19T17:43:58.053Z,93.22
2022-12-19T17:46:26.065Z,91.93
2022-12-19T17:48:53.882Z,88.18
2022-12-19T17:51:23.162Z,94.65
2022-12-19T17:53:51.209Z,85.70
2022-12-19T17:56:20.518Z,95.72
2022-12-19T17:58:48.658Z,100.15
2022-12-19T18:01:21.130Z,87.85
2022-12-19T18:03:52.655Z,93.90
2022-12-19T18:06:19.989Z,87.80
2022-12-19T18:08:48.735Z,91.97
2022-12-19T18:11:22.384Z,101.53
2022-12-19T18:13:49.593Z,95.78
2022-12-19T18:16:26.514Z,100.68
2022-12-19T18:18:54.057Z,101.75
2022-12-19T18:21:24.797Z,107.80
2022-12-19T18:23:52.376Z,105.07
2022-12-19T18:26:19.788Z,96.88
2022-12-19T18:28:47.171Z,106.60
2022-12-19T18:31:17.523Z,90.25
2022-12-19T18:33:46.842Z,103.10
2022-12-19T18:36:20.436Z,101.32
2022-12-19T18:38:48.743Z,104.43
2022-12-19T18:41:17.350Z,98.13
2022-12-19T18:43:45.009Z,106.33
2022-12-19T18:46:16.980Z,101.45
2022-12-19T18:48:45.295Z,94.90
2022-12-19T18:51:17.916Z,95.38
2022-12-19T18:53:46.500Z,100.13
2022-12-19T18:56:13.852Z,93.73
2022-12-19T18:58:41.458Z,101.50
2022-12-19T19:01:15.432Z,99.80
2022-12-19T19:03:53.441Z,86.65
2022-12-19T19:06:23.291Z,93.53
2022-12-19T19:08:52.073Z,100.85
2022-12-19T19:11:23.570Z,87.90
2022-12-19T19:13:51.690Z,85.03
2022-12-19T19:16:24.801Z,89.95
2022-12-19T19:18:55.157Z,95.00
2022-12-19T19:21:29.040Z,92.53
2022-12-19T19:24:12.500Z,96.28
2022-12-19T19:26:39.742Z,84.85
2022-12-19T19:29:07.041Z,84.57
2022-12-19T19:31:37.397Z,89.15
2022-12-19T19:34:27.692Z,87.22
2022-12-19T19:36:56.306Z,85.30
2022-12-19T19:39:24.641Z,87.70
2022-12-19T19:41:52.078Z,87.70
2022-12-19T19:44:19.388Z,87.80
2022-12-19T19:46:47.081Z,85.43
2022-12-19T19:49:15.347Z,81.88
2022-12-19T19:51:42.629Z,92.88
2022-12-19T19:54:09.968Z,86.28
2022-12-19T19:56:37.377Z,86.13
2022-12-19T19:59:05.020Z,82.75
2022-12-19T20:01:32.879Z,79.03
2022-12-19T20:04:00.274Z,81.88
2022-12-19T20:06:27.831Z,81.75
2022-12-19T20:08:55.307Z,74.88
2022-12-19T20:11:22.706Z,84.10
2022-12-19T20:13:53.154Z,82.75
2022-12-19T20:16:20.652Z,78.57
2022-12-19T20:18:50.077Z,85.13
2022-12-19T20:21:20.474Z,81.60
2022-12-19T20:23:48.195Z,82.22
2022-12-19T20:26:17.027Z,79.00
2022-12-19T20:28:50.077Z,72.50
2022-12-19T20:31:32.676Z,82.20
2022-12-19T20:34:00.602Z,81.47
2022-12-19T20:36:30.551Z,83.15
2022-12-19T20:38:57.952Z,73.00
2022-12-19T20:41:25.287Z,72.78
2022-12-19T20:43:53.314Z,68.90
2022-12-19T20:46:21.554Z,72.13
2022-12-19T20:48:55.424Z,75.00
2022-12-19T20:51:26.073Z,76.60
2022-12-19T20:53:56.144Z,70.80
2022-12-19T20:56:23.482Z,70.60
2022-12-19T20:58:54.425Z,69.00
2022-12-19T21:01:29.323Z,73.05
2022-12-19T21:03:59.919Z,66.82
2022-12-19T21:06:30.350Z,67.40
2022-12-19T21:09:01.533Z,65.97
2022-12-19T21:11:29.545Z,64.45
2022-12-19T21:14:02.393Z,67.22
2022-12-19T21:16:30.282Z,61.75
2022-12-19T21:21:28.355Z,61.92
2022-12-19T21:24:03.123Z,63.78
2022-12-19T21:26:31.980Z,68.35
2022-12-19T21:28:59.708Z,60.15
2022-12-19T21:31:29.302Z,63.95
2022-12-19T21:34:00.844Z,57.05
2022-12-19T21:36:28.942Z,59.90
2022-12-19T21:38:58.553Z,64.53
2022-12-19T21:41:26.110Z,59.17
2022-12-19T21:43:55.105Z,59.75
2022-12-19T21:46:27.518Z,61.05
2022-12-19T21:48:56.696Z,68.25
2022-12-19T21:51:28.741Z,61.35
2022-12-19T21:53:57.999Z,63.88
2022-12-19T21:56:30.621Z,58.35
2022-12-19T21:59:01.861Z,64.28
2022-12-19T22:01:29.799Z,54.78
2022-12-19T22:04:02.481Z,66.57
2022-12-19T22:06:32.067Z,61.08
2022-12-19T22:09:00.351Z,49.88
2022-12-19T22:11:30.631Z,57.13
2022-12-19T22:14:00.257Z,53.63
2022-12-19T22:16:28.687Z,57.03
2022-12-19T22:18:56.560Z,55.33
2022-12-19T22:21:24.429Z,59.95
2022-12-19T22:23:55.846Z,51.05
2022-12-19T22:26:24.061Z,50.00
2022-12-19T22:28:53.435Z,49.30
2022-12-19T22:33:52.478Z,48.10
2022-12-19T22:36:27.364Z,47.53
2022-12-19T22:38:56.317Z,47.30
2022-12-19T22:41:23.594Z,46.85
2022-12-19T22:43:51.016Z,46.97
2022-12-19T22:46:21.147Z,48.33
2022-12-19T22:48:49.833Z,47.72
2022-12-19T22:51:18.256Z,51.20
2022-12-19T22:53:46.263Z,47.03
2022-12-19T22:56:16.144Z,47.92
2022-12-19T22:58:45.634Z,48.22
2022-12-19T23:01:35.003Z,51.78
2022-12-19T23:04:02.939Z,45.85
2022-12-19T23:06:33.590Z,48.10
2022-12-19T23:09:01.527Z,48.10
2022-12-19T23:11:32.681Z,46.40
2022-12-19T23:14:00.576Z,42.92
2022-12-19T23:16:27.906Z,44.00
2022-12-19T23:18:55.186Z,44.17
2022-12-19T23:21:23.931Z,39.95
2022-12-19T23:23:52.794Z,43.47
2022-12-19T23:26:23.001Z,40.80
2022-12-19T23:29:01.749Z,36.05
2022-12-19T23:31:29.727Z,38.60
2022-12-19T23:33:58.128Z,38.88
2022-12-19T23:36:52.661Z,38.75
2022-12-19T23:39:13.221Z,40.08
2022-12-19T23:41:40.839Z,43.88
2022-12-19T23:44:09.239Z,38.70
2022-12-19T23:46:36.911Z,40.08
2022-12-19T23:49:04.546Z,35.85
2022-12-19T23:51:32.132Z,42.72
2022-12-19T23:53:59.322Z,40.60
2022-12-19T23:56:30.291Z,36.05
2022-12-19T23:58:57.746Z,38.53
